Al Khuwair — C6VM6 — position and weather

sailwx.info

Track history (hours):
 
Tides and Currents Weather Stations Pressure Air Temp Water Temp Dewpoint Dewpoint Depression Visibility Wind Speed Wind Dir Waves Ship Positions

Al Khuwair

Last reported at 2014-Oct-10 08:32 UTC. Time now 2014-Oct-30 18:18 UTC.
Position N 37°56' E 009°54'.
Warning: this ship's position is 20 days out of date.

Length 315 m; draft 9.3 m.

Type: Ship (hazmat cat A). MMSI: 311000140.

Date/timePositionNaut miles runAvg speedWind from/ knotsBaromVisibWave heightAir tempDewpointWater temp
2014-Oct-10 08:32N 37°56' E 009°54'1515.6
2014-Oct-10 07:33N 38°00' E 009°35'2115.9
2014-Oct-10 06:15N 38°00' E 009°09'1115.8
2014-Oct-10 05:33N 38°00' E 008°55'1615.5
2014-Oct-10 04:33N 37°60' E 008°35'1816.0
2014-Oct-10 03:27N 37°60' E 008°13'13616.3
2014-Oct-09 19:05N 38°00' E 005°20'1216.9
2014-Oct-09 18:24N 38°00' E 005°05'1916.5
2014-Oct-09 17:14N 38°00' E 004°41'1115.8
2014-Oct-09 16:32N 38°00' E 004°27'1915.8
2014-Oct-09 15:22N 38°00' E 004°03'1315.5
2014-Oct-09 14:33N 37°57' E 003°48'1815.9
2014-Oct-09 13:26N 37°51' E 003°26'1416.0
2014-Oct-09 12:33N 37°46' E 003°10'1816.0
2014-Oct-09 11:27N 37°40' E 002°49'1415.8
2014-Oct-09 10:32N 37°35' E 002°32'1816.1
2014-Oct-09 09:24N 37°29' E 002°10'1616.5
2014-Oct-09 08:25N 37°23' E 001°51'1516.4
2014-Oct-09 07:31N 37°18' E 001°33'1616.6
2014-Oct-09 06:33N 37°13' E 001°14'1716.5
2014-Oct-09 05:31N 37°07' E 000°54'1716.7
2014-Oct-09 04:29N 37°01' E 000°34'1616.3
2014-Oct-09 03:32N 36°56' E 000°15'1816.2
2014-Oct-09 02:27N 36°50' W 000°05'1516.2
2014-Oct-09 01:30N 36°45' W 000°23'1516.2
2014-Oct-09 00:33N 36°40' W 000°41'1716.2
2014-Oct-08 23:30N 36°34' W 001°01'2316.1
2014-Oct-08 22:05N 36°26' W 001°28'1116.3
2014-Oct-08 21:24N 36°22' W 001°41'17616.2
2014-Oct-08 10:33N 36°03' W 005°18'4 0.2
2014-Oct-07 08:17N 36°01' W 005°22'  
2014-Sep-30 10:21N 38°07' W 009°46'1315.2
2014-Sep-30 09:29N 37°54' W 009°43'1415.1
2014-Sep-30 08:33N 37°40' W 009°38'  
Track history (hours):
 
Tides and Currents Weather Stations Pressure Air Temp Water Temp Dewpoint Dewpoint Depression Visibility Wind Speed Wind Dir Waves Ship Positions

Al Khuwair

Last reported at 2014-Oct-10 08:32 UTC. Time now 2014-Oct-30 18:18 UTC.
Position N 37°56' E 009°54'.
Warning: this ship's position is 20 days out of date.

Length 315 m; draft 9.3 m.

Type: Ship (hazmat cat A). MMSI: 311000140.

Date/timePositionNaut miles runAvg speedWind from/ knotsBaromVisibWave heightAir tempDewpointWater temp
2014-Oct-10 08:32N 37°56' E 009°54'1515.6
2014-Oct-10 07:33N 38°00' E 009°35'2115.9
2014-Oct-10 06:15N 38°00' E 009°09'1115.8
2014-Oct-10 05:33N 38°00' E 008°55'1615.5
2014-Oct-10 04:33N 37°60' E 008°35'1816.0
2014-Oct-10 03:27N 37°60' E 008°13'13616.3
2014-Oct-09 19:05N 38°00' E 005°20'1216.9
2014-Oct-09 18:24N 38°00' E 005°05'1916.5
2014-Oct-09 17:14N 38°00' E 004°41'1115.8
2014-Oct-09 16:32N 38°00' E 004°27'1915.8
2014-Oct-09 15:22N 38°00' E 004°03'1315.5
2014-Oct-09 14:33N 37°57' E 003°48'1815.9
2014-Oct-09 13:26N 37°51' E 003°26'1416.0
2014-Oct-09 12:33N 37°46' E 003°10'1816.0
2014-Oct-09 11:27N 37°40' E 002°49'1415.8
2014-Oct-09 10:32N 37°35' E 002°32'1816.1
2014-Oct-09 09:24N 37°29' E 002°10'1616.5
2014-Oct-09 08:25N 37°23' E 001°51'1516.4
2014-Oct-09 07:31N 37°18' E 001°33'1616.6
2014-Oct-09 06:33N 37°13' E 001°14'1716.5
2014-Oct-09 05:31N 37°07' E 000°54'1716.7
2014-Oct-09 04:29N 37°01' E 000°34'1616.3
2014-Oct-09 03:32N 36°56' E 000°15'1816.2
2014-Oct-09 02:27N 36°50' W 000°05'1516.2
2014-Oct-09 01:30N 36°45' W 000°23'1516.2
2014-Oct-09 00:33N 36°40' W 000°41'1716.2
2014-Oct-08 23:30N 36°34' W 001°01'2316.1
2014-Oct-08 22:05N 36°26' W 001°28'1116.3
2014-Oct-08 21:24N 36°22' W 001°41'17616.2
2014-Oct-08 10:33N 36°03' W 005°18'4 0.2
2014-Oct-07 08:17N 36°01' W 005°22'  
2014-Sep-30 10:21N 38°07' W 009°46'1315.2
2014-Sep-30 09:29N 37°54' W 009°43'1415.1
2014-Sep-30 08:33N 37°40' W 009°38'  

Dump ship's entire track history